sensor_id;sensor_type;location;lat;lon;timestamp;pressure;altitude;pressure_sealevel;temperature;humidity
11343;BME280;5726;42.160;24.746;2023-06-19T00:02:14;99386.44;;;22.37;95.45
11343;BME280;5726;42.160;24.746;2023-06-19T00:04:40;99379.88;;;22.41;95.00
11343;BME280;5726;42.160;24.746;2023-06-19T00:07:05;99381.00;;;22.40;95.08
11343;BME280;5726;42.160;24.746;2023-06-19T00:09:32;99388.31;;;22.33;95.86
11343;BME280;5726;42.160;24.746;2023-06-19T00:11:58;99396.03;;;22.27;96.15
11343;BME280;5726;42.160;24.746;2023-06-19T00:14:25;99395.03;;;22.39;95.57
11343;BME280;5726;42.160;24.746;2023-06-19T00:16:50;99392.31;;;22.39;95.32
11343;BME280;5726;42.160;24.746;2023-06-19T00:19:16;99391.91;;;22.37;95.37
11343;BME280;5726;42.160;24.746;2023-06-19T00:21:42;99385.78;;;22.47;94.58
11343;BME280;5726;42.160;24.746;2023-06-19T00:24:08;99400.38;;;22.32;95.44
11343;BME280;5726;42.160;24.746;2023-06-19T00:26:34;99399.25;;;22.33;95.14
11343;BME280;5726;42.160;24.746;2023-06-19T00:28:59;99389.59;;;22.16;95.90
11343;BME280;5726;42.160;24.746;2023-06-19T00:31:25;99393.09;;;22.17;96.01
11343;BME280;5726;42.160;24.746;2023-06-19T00:33:52;99392.75;;;21.96;97.18
11343;BME280;5726;42.160;24.746;2023-06-19T00:36:18;99388.47;;;21.95;97.03
11343;BME280;5726;42.160;24.746;2023-06-19T00:38:48;99398.59;;;21.95;96.98
11343;BME280;5726;42.160;24.746;2023-06-19T00:41:15;99391.31;;;22.02;96.37
11343;BME280;5726;42.160;24.746;2023-06-19T00:43:41;99393.63;;;22.00;96.25
11343;BME280;5726;42.160;24.746;2023-06-19T00:46:07;99397.63;;;22.06;95.33
11343;BME280;5726;42.160;24.746;2023-06-19T00:48:33;99390.34;;;21.91;96.33
11343;BME280;5726;42.160;24.746;2023-06-19T00:50:59;99389.41;;;21.80;96.89
11343;BME280;5726;42.160;24.746;2023-06-19T00:53:25;99386.13;;;21.71;97.85
11343;BME280;5726;42.160;24.746;2023-06-19T00:55:52;99387.69;;;21.72;97.35
11343;BME280;5726;42.160;24.746;2023-06-19T00:58:20;99392.31;;;21.68;97.37
11343;BME280;5726;42.160;24.746;2023-06-19T01:00:45;99389.75;;;21.57;98.08
11343;BME280;5726;42.160;24.746;2023-06-19T01:03:11;99389.50;;;21.65;97.84
11343;BME280;5726;42.160;24.746;2023-06-19T01:05:36;99391.41;;;21.61;98.11
11343;BME280;5726;42.160;24.746;2023-06-19T01:10:52;99392.31;;;21.68;97.07
11343;BME280;5726;42.160;24.746;2023-06-19T01:13:36;99387.56;;;21.65;97.46
11343;BME280;5726;42.160;24.746;2023-06-19T01:16:06;99390.66;;;21.64;97.11
11343;BME280;5726;42.160;24.746;2023-06-19T01:18:32;99387.75;;;21.54;97.94
11343;BME280;5726;42.160;24.746;2023-06-19T01:21:16;99392.03;;;21.55;97.65
11343;BME280;5726;42.160;24.746;2023-06-19T01:23:43;99379.44;;;21.47;98.11
11343;BME280;5726;42.160;24.746;2023-06-19T01:26:09;99384.16;;;21.50;97.70
11343;BME280;5726;42.160;24.746;2023-06-19T01:28:36;99384.59;;;21.33;98.70
11343;BME280;5726;42.160;24.746;2023-06-19T01:31:08;99384.81;;;21.43;98.03
11343;BME280;5726;42.160;24.746;2023-06-19T01:33:37;99381.94;;;21.36;98.37
11343;BME280;5726;42.160;24.746;2023-06-19T01:36:23;99385.19;;;21.23;98.62
11343;BME280;5726;42.160;24.746;2023-06-19T01:38:50;99375.56;;;21.29;98.48
11343;BME280;5726;42.160;24.746;2023-06-19T01:41:17;99378.84;;;21.19;99.18
11343;BME280;5726;42.160;24.746;2023-06-19T01:43:45;99383.00;;;21.32;98.07
11343;BME280;5726;42.160;24.746;2023-06-19T01:46:11;99379.97;;;21.37;97.72
11343;BME280;5726;42.160;24.746;2023-06-19T01:48:38;99380.84;;;21.41;97.28
11343;BME280;5726;42.160;24.746;2023-06-19T01:51:04;99382.25;;;21.31;97.55
11343;BME280;5726;42.160;24.746;2023-06-19T01:53:30;99383.72;;;21.29;97.43
11343;BME280;5726;42.160;24.746;2023-06-19T01:55:57;99376.97;;;21.42;96.99
11343;BME280;5726;42.160;24.746;2023-06-19T01:58:22;99374.88;;;21.35;97.21
11343;BME280;5726;42.160;24.746;2023-06-19T02:00:48;99382.25;;;21.31;96.89
11343;BME280;5726;42.160;24.746;2023-06-19T02:03:13;99374.78;;;21.28;97.58
11343;BME280;5726;42.160;24.746;2023-06-19T02:05:39;99377.13;;;21.49;95.77
11343;BME280;5726;42.160;24.746;2023-06-19T02:08:05;99377.84;;;21.46;95.81
11343;BME280;5726;42.160;24.746;2023-06-19T02:10:31;99377.84;;;21.46;95.50
11343;BME280;5726;42.160;24.746;2023-06-19T02:12:56;99379.25;;;21.59;94.76
11343;BME280;5726;42.160;24.746;2023-06-19T02:15:22;99375.97;;;21.50;94.96
11343;BME280;5726;42.160;24.746;2023-06-19T02:17:47;99381.66;;;21.63;94.15
11343;BME280;5726;42.160;24.746;2023-06-19T02:20:13;99388.72;;;21.64;93.83
11343;BME280;5726;42.160;24.746;2023-06-19T02:22:39;99396.31;;;21.74;93.51
11343;BME280;5726;42.160;24.746;2023-06-19T02:25:05;99397.03;;;21.71;93.40
11343;BME280;5726;42.160;24.746;2023-06-19T02:27:30;99391.75;;;21.82;92.74
11343;BME280;5726;42.160;24.746;2023-06-19T02:29:56;99390.94;;;21.81;92.86
11343;BME280;5726;42.160;24.746;2023-06-19T02:32:22;99400.91;;;21.70;93.27
11343;BME280;5726;42.160;24.746;2023-06-19T02:34:47;99396.41;;;21.59;93.74
11343;BME280;5726;42.160;24.746;2023-06-19T02:37:13;99390.94;;;21.59;93.63
11343;BME280;5726;42.160;24.746;2023-06-19T02:39:38;99398.84;;;21.64;93.23
11343;BME280;5726;42.160;24.746;2023-06-19T02:42:04;99412.13;;;21.65;93.19
11343;BME280;5726;42.160;24.746;2023-06-19T02:44:30;99409.28;;;21.59;93.58
11343;BME280;5726;42.160;24.746;2023-06-19T02:46:55;99403.97;;;21.47;94.29
11343;BME280;5726;42.160;24.746;2023-06-19T02:49:21;99399.38;;;21.51;93.97
11343;BME280;5726;42.160;24.746;2023-06-19T02:51:46;99406.78;;;21.50;93.80
11343;BME280;5726;42.160;24.746;2023-06-19T02:54:11;99411.59;;;21.57;93.38
11343;BME280;5726;42.160;24.746;2023-06-19T02:56:38;99414.72;;;21.59;93.18
11343;BME280;5726;42.160;24.746;2023-06-19T02:59:04;99412.72;;;21.56;93.47
11343;BME280;5726;42.160;24.746;2023-06-19T03:01:29;99408.25;;;21.66;92.74
11343;BME280;5726;42.160;24.746;2023-06-19T03:03:55;99411.13;;;21.55;93.05
11343;BME280;5726;42.160;24.746;2023-06-19T03:06:20;99405.03;;;21.61;92.74
11343;BME280;5726;42.160;24.746;2023-06-19T03:08:46;99405.75;;;21.58;93.28
11343;BME280;5726;42.160;24.746;2023-06-19T03:11:11;99410.97;;;21.66;92.98
11343;BME280;5726;42.160;24.746;2023-06-19T03:13:53;99409.22;;;21.77;92.51
11343;BME280;5726;42.160;24.746;2023-06-19T03:16:19;99414.56;;;21.93;91.44
11343;BME280;5726;42.160;24.746;2023-06-19T03:18:45;99409.41;;;22.10;91.07
11343;BME280;5726;42.160;24.746;2023-06-19T03:21:11;99405.03;;;22.28;90.07
11343;BME280;5726;42.160;24.746;2023-06-19T03:23:37;99409.13;;;22.41;89.81
11343;BME280;5726;42.160;24.746;2023-06-19T03:26:02;99411.44;;;22.39;89.56
11343;BME280;5726;42.160;24.746;2023-06-19T03:28:28;99414.91;;;22.36;89.84
11343;BME280;5726;42.160;24.746;2023-06-19T03:30:54;99421.75;;;22.49;89.60
11343;BME280;5726;42.160;24.746;2023-06-19T03:33:20;99418.06;;;22.63;88.70
11343;BME280;5726;42.160;24.746;2023-06-19T03:35:45;99420.25;;;22.80;88.19
11343;BME280;5726;42.160;24.746;2023-06-19T03:38:11;99421.53;;;22.90;87.73
11343;BME280;5726;42.160;24.746;2023-06-19T03:40:36;99421.44;;;22.83;87.64
11343;BME280;5726;42.160;24.746;2023-06-19T03:43:02;99416.22;;;23.00;87.25
11343;BME280;5726;42.160;24.746;2023-06-19T03:45:27;99420.78;;;22.93;87.76
11343;BME280;5726;42.160;24.746;2023-06-19T03:47:53;99421.69;;;23.00;86.75
11343;BME280;5726;42.160;24.746;2023-06-19T03:50:18;99425.25;;;23.33;85.49
11343;BME280;5726;42.160;24.746;2023-06-19T03:52:43;99429.72;;;23.15;85.50
11343;BME280;5726;42.160;24.746;2023-06-19T03:55:09;99418.84;;;23.22;85.89
11343;BME280;5726;42.160;24.746;2023-06-19T03:57:34;99417.72;;;23.27;85.36
11343;BME280;5726;42.160;24.746;2023-06-19T04:00:00;99420.47;;;23.27;84.65
11343;BME280;5726;42.160;24.746;2023-06-19T04:02:25;99411.50;;;23.30;84.48
11343;BME280;5726;42.160;24.746;2023-06-19T04:04:51;99401.00;;;23.32;85.79
11343;BME280;5726;42.160;24.746;2023-06-19T04:07:16;99413.84;;;23.64;83.97
11343;BME280;5726;42.160;24.746;2023-06-19T04:09:43;99412.72;;;23.68;84.61
11343;BME280;5726;42.160;24.746;2023-06-19T04:12:09;99414.88;;;23.85;83.18
11343;BME280;5726;42.160;24.746;2023-06-19T04:14:34;99408.06;;;24.12;82.00
11343;BME280;5726;42.160;24.746;2023-06-19T04:17:00;99405.31;;;24.12;81.87
11343;BME280;5726;42.160;24.746;2023-06-19T04:19:25;99406.69;;;23.89;82.95
11343;BME280;5726;42.160;24.746;2023-06-19T04:21:51;99404.38;;;23.94;81.94
11343;BME280;5726;42.160;24.746;2023-06-19T04:24:16;99404.03;;;23.99;81.47
11343;BME280;5726;42.160;24.746;2023-06-19T04:26:41;99395.75;;;23.92;81.78
11343;BME280;5726;42.160;24.746;2023-06-19T04:29:07;99397.00;;;24.02;80.83
11343;BME280;5726;42.160;24.746;2023-06-19T04:31:33;99404.84;;;24.03;81.34
11343;BME280;5726;42.160;24.746;2023-06-19T04:34:05;99402.19;;;24.13;79.75
11343;BME280;5726;42.160;24.746;2023-06-19T04:36:31;99403.38;;;24.16;79.45
11343;BME280;5726;42.160;24.746;2023-06-19T04:38:57;99401.06;;;24.18;79.60
11343;BME280;5726;42.160;24.746;2023-06-19T04:43:48;99405.63;;;24.00;80.13
11343;BME280;5726;42.160;24.746;2023-06-19T04:46:14;99411.97;;;24.11;79.54
11343;BME280;5726;42.160;24.746;2023-06-19T04:48:44;99412.06;;;24.25;79.28
11343;BME280;5726;42.160;24.746;2023-06-19T04:51:10;99416.00;;;24.31;79.14
11343;BME280;5726;42.160;24.746;2023-06-19T04:53:36;99410.75;;;24.55;78.81
11343;BME280;5726;42.160;24.746;2023-06-19T04:56:02;99418.28;;;24.72;78.02
11343;BME280;5726;42.160;24.746;2023-06-19T04:58:27;99406.59;;;24.85;78.11
11343;BME280;5726;42.160;24.746;2023-06-19T05:00:53;99414.16;;;25.02;76.98
11343;BME280;5726;42.160;24.746;2023-06-19T05:03:20;99403.22;;;25.12;76.75
11343;BME280;5726;42.160;24.746;2023-06-19T05:05:47;99415.00;;;25.13;76.63
11343;BME280;5726;42.160;24.746;2023-06-19T05:08:12;99412.69;;;25.22;75.83
11343;BME280;5726;42.160;24.746;2023-06-19T05:10:38;99417.03;;;25.26;76.29
11343;BME280;5726;42.160;24.746;2023-06-19T05:13:03;99408.06;;;25.53;75.75
11343;BME280;5726;42.160;24.746;2023-06-19T05:15:28;99411.28;;;25.90;74.61
11343;BME280;5726;42.160;24.746;2023-06-19T05:17:54;99406.19;;;26.13;74.19
11343;BME280;5726;42.160;24.746;2023-06-19T05:20:19;99419.56;;;26.25;72.73
11343;BME280;5726;42.160;24.746;2023-06-19T05:22:45;99418.75;;;26.07;73.02
11343;BME280;5726;42.160;24.746;2023-06-19T05:25:10;99410.50;;;26.21;73.07
11343;BME280;5726;42.160;24.746;2023-06-19T05:27:36;99418.75;;;26.62;71.48
11343;BME280;5726;42.160;24.746;2023-06-19T05:30:02;99412.47;;;26.45;72.23
11343;BME280;5726;42.160;24.746;2023-06-19T05:32:29;99419.06;;;26.85;71.09
11343;BME280;5726;42.160;24.746;2023-06-19T05:34:54;99423.78;;;26.88;69.66
11343;BME280;5726;42.160;24.746;2023-06-19T05:37:20;99423.44;;;26.69;70.20
11343;BME280;5726;42.160;24.746;2023-06-19T05:39:47;99413.59;;;26.71;70.06
11343;BME280;5726;42.160;24.746;2023-06-19T05:42:12;99416.75;;;26.73;70.34
11343;BME280;5726;42.160;24.746;2023-06-19T05:44:38;99424.25;;;26.62;69.86
11343;BME280;5726;42.160;24.746;2023-06-19T05:47:03;99416.03;;;26.42;71.09
11343;BME280;5726;42.160;24.746;2023-06-19T05:49:29;99416.41;;;26.57;70.82
11343;BME280;5726;42.160;24.746;2023-06-19T05:51:54;99419.47;;;26.80;69.79
11343;BME280;5726;42.160;24.746;2023-06-19T05:54:24;99415.88;;;27.11;68.44
11343;BME280;5726;42.160;24.746;2023-06-19T05:56:50;99416.66;;;27.11;68.68
11343;BME280;5726;42.160;24.746;2023-06-19T05:59:15;99422.91;;;27.19;67.72
11343;BME280;5726;42.160;24.746;2023-06-19T06:01:41;99417.44;;;27.15;68.25
11343;BME280;5726;42.160;24.746;2023-06-19T06:04:06;99416.69;;;27.01;68.10
11343;BME280;5726;42.160;24.746;2023-06-19T06:06:32;99422.59;;;27.06;68.55
11343;BME280;5726;42.160;24.746;2023-06-19T06:08:57;99426.81;;;27.32;67.03
11343;BME280;5726;42.160;24.746;2023-06-19T06:11:22;99419.75;;;27.24;67.83
11343;BME280;5726;42.160;24.746;2023-06-19T06:13:48;99411.94;;;27.12;68.19
11343;BME280;5726;42.160;24.746;2023-06-19T06:16:13;99420.59;;;27.14;67.61
11343;BME280;5726;42.160;24.746;2023-06-19T06:18:39;99416.63;;;27.15;67.36
11343;BME280;5726;42.160;24.746;2023-06-19T06:21:05;99430.41;;;27.15;68.12
11343;BME280;5726;42.160;24.746;2023-06-19T06:23:30;99430.00;;;27.20;67.97
11343;BME280;5726;42.160;24.746;2023-06-19T06:25:55;99427.59;;;27.29;68.43
11343;BME280;5726;42.160;24.746;2023-06-19T06:28:26;99424.41;;;27.41;67.46
11343;BME280;5726;42.160;24.746;2023-06-19T06:30:52;99418.19;;;27.19;67.92
11343;BME280;5726;42.160;24.746;2023-06-19T06:33:17;99431.63;;;27.03;68.71
11343;BME280;5726;42.160;24.746;2023-06-19T06:35:42;99412.63;;;27.33;68.20
11343;BME280;5726;42.160;24.746;2023-06-19T06:38:09;99422.03;;;27.36;67.84
11343;BME280;5726;42.160;24.746;2023-06-19T06:40:34;99421.84;;;27.81;67.63
11343;BME280;5726;42.160;24.746;2023-06-19T06:43:00;99422.91;;;27.93;66.25
11343;BME280;5726;42.160;24.746;2023-06-19T06:45:25;99420.63;;;27.85;66.95
11343;BME280;5726;42.160;24.746;2023-06-19T06:47:50;99418.81;;;27.61;67.33
11343;BME280;5726;42.160;24.746;2023-06-19T06:50:16;99411.97;;;27.80;66.59
11343;BME280;5726;42.160;24.746;2023-06-19T06:52:42;99411.34;;;28.16;66.69
11343;BME280;5726;42.160;24.746;2023-06-19T06:55:07;99421.50;;;28.69;65.13
11343;BME280;5726;42.160;24.746;2023-06-19T06:57:33;99418.97;;;28.85;63.93
11343;BME280;5726;42.160;24.746;2023-06-19T06:59:58;99425.69;;;28.84;62.73
11343;BME280;5726;42.160;24.746;2023-06-19T07:02:23;99431.63;;;29.16;61.44
11343;BME280;5726;42.160;24.746;2023-06-19T07:04:49;99430.97;;;29.05;61.76
11343;BME280;5726;42.160;24.746;2023-06-19T07:07:14;99427.63;;;28.87;61.28
11343;BME280;5726;42.160;24.746;2023-06-19T07:09:40;99427.66;;;28.84;60.23
11343;BME280;5726;42.160;24.746;2023-06-19T07:12:06;99433.75;;;28.68;59.28
11343;BME280;5726;42.160;24.746;2023-06-19T07:14:32;99432.97;;;28.64;60.24
11343;BME280;5726;42.160;24.746;2023-06-19T07:16:58;99435.19;;;28.80;59.22
11343;BME280;5726;42.160;24.746;2023-06-19T07:19:23;99429.25;;;28.81;60.02
11343;BME280;5726;42.160;24.746;2023-06-19T07:21:51;99426.84;;;29.20;59.21
11343;BME280;5726;42.160;24.746;2023-06-19T07:24:17;99432.09;;;29.44;58.12
11343;BME280;5726;42.160;24.746;2023-06-19T07:26:43;99438.09;;;29.65;56.96
11343;BME280;5726;42.160;24.746;2023-06-19T07:29:08;99432.50;;;29.72;57.33
11343;BME280;5726;42.160;24.746;2023-06-19T07:31:33;99439.28;;;29.94;56.62
11343;BME280;5726;42.160;24.746;2023-06-19T07:33:59;99439.44;;;30.36;56.16
11343;BME280;5726;42.160;24.746;2023-06-19T07:36:24;99428.97;;;30.47;55.52
11343;BME280;5726;42.160;24.746;2023-06-19T07:38:50;99435.38;;;30.63;54.22
11343;BME280;5726;42.160;24.746;2023-06-19T07:41:15;99420.22;;;30.48;53.69
11343;BME280;5726;42.160;24.746;2023-06-19T07:43:40;99422.25;;;30.22;52.46
11343;BME280;5726;42.160;24.746;2023-06-19T07:46:06;99429.69;;;30.02;53.88
11343;BME280;5726;42.160;24.746;2023-06-19T07:48:31;99426.94;;;30.02;53.33
11343;BME280;5726;42.160;24.746;2023-06-19T07:50:57;99423.38;;;29.75;53.56
11343;BME280;5726;42.160;24.746;2023-06-19T07:53:22;99427.06;;;29.65;53.86
11343;BME280;5726;42.160;24.746;2023-06-19T07:55:48;99428.53;;;29.43;53.72
11343;BME280;5726;42.160;24.746;2023-06-19T07:58:13;99435.91;;;29.53;53.72
11343;BME280;5726;42.160;24.746;2023-06-19T08:00:39;99435.50;;;29.55;53.42
11343;BME280;5726;42.160;24.746;2023-06-19T08:03:05;99436.75;;;29.80;53.91
11343;BME280;5726;42.160;24.746;2023-06-19T08:05:30;99436.06;;;29.99;51.81
11343;BME280;5726;42.160;24.746;2023-06-19T08:07:56;99434.94;;;30.19;51.63
11343;BME280;5726;42.160;24.746;2023-06-19T08:10:22;99434.22;;;29.89;52.38
11343;BME280;5726;42.160;24.746;2023-06-19T08:12:47;99437.13;;;29.79;52.96
11343;BME280;5726;42.160;24.746;2023-06-19T08:15:12;99431.47;;;29.89;53.20
11343;BME280;5726;42.160;24.746;2023-06-19T08:17:41;99433.41;;;29.92;51.39
11343;BME280;5726;42.160;24.746;2023-06-19T08:20:07;99428.97;;;30.21;50.01
11343;BME280;5726;42.160;24.746;2023-06-19T08:22:33;99436.00;;;30.51;50.57
11343;BME280;5726;42.160;24.746;2023-06-19T08:24:59;99435.50;;;30.56;50.27
11343;BME280;5726;42.160;24.746;2023-06-19T08:27:24;99439.94;;;30.05;50.96
11343;BME280;5726;42.160;24.746;2023-06-19T08:29:50;99443.78;;;29.85;52.12
11343;BME280;5726;42.160;24.746;2023-06-19T08:32:16;99431.94;;;29.84;51.81
11343;BME280;5726;42.160;24.746;2023-06-19T08:34:41;99441.19;;;29.71;51.32
11343;BME280;5726;42.160;24.746;2023-06-19T08:37:07;99443.22;;;29.96;50.56
11343;BME280;5726;42.160;24.746;2023-06-19T08:39:33;99442.63;;;29.82;49.74
11343;BME280;5726;42.160;24.746;2023-06-19T08:41:59;99438.25;;;29.85;49.97
11343;BME280;5726;42.160;24.746;2023-06-19T08:44:24;99438.72;;;29.80;49.34
11343;BME280;5726;42.160;24.746;2023-06-19T08:46:50;99450.75;;;29.66;49.23
11343;BME280;5726;42.160;24.746;2023-06-19T08:49:15;99440.59;;;29.86;49.59
11343;BME280;5726;42.160;24.746;2023-06-19T08:51:41;99436.25;;;29.85;48.90
11343;BME280;5726;42.160;24.746;2023-06-19T08:54:07;99433.88;;;29.87;49.61
11343;BME280;5726;42.160;24.746;2023-06-19T08:56:35;99438.44;;;29.97;49.80
11343;BME280;5726;42.160;24.746;2023-06-19T08:59:13;99432.81;;;30.04;50.46
11343;BME280;5726;42.160;24.746;2023-06-19T09:01:39;99435.09;;;30.09;51.41
11343;BME280;5726;42.160;24.746;2023-06-19T09:04:09;99427.31;;;30.49;49.76
11343;BME280;5726;42.160;24.746;2023-06-19T09:06:36;99434.31;;;30.57;49.18
11343;BME280;5726;42.160;24.746;2023-06-19T09:09:04;99420.22;;;30.48;49.12
11343;BME280;5726;42.160;24.746;2023-06-19T09:11:35;99425.84;;;30.64;48.65
11343;BME280;5726;42.160;24.746;2023-06-19T09:14:00;99422.00;;;30.58;49.33
11343;BME280;5726;42.160;24.746;2023-06-19T09:16:39;99415.72;;;30.77;49.24
11343;BME280;5726;42.160;24.746;2023-06-19T09:19:05;99417.91;;;30.89;48.35
11343;BME280;5726;42.160;24.746;2023-06-19T09:21:31;99416.13;;;30.98;48.40
11343;BME280;5726;42.160;24.746;2023-06-19T09:24:04;99414.72;;;31.29;47.22
11343;BME280;5726;42.160;24.746;2023-06-19T09:26:30;99411.09;;;31.13;47.82
11343;BME280;5726;42.160;24.746;2023-06-19T09:28:55;99413.34;;;31.18;46.07
11343;BME280;5726;42.160;24.746;2023-06-19T09:31:31;99408.47;;;31.06;46.88
11343;BME280;5726;42.160;24.746;2023-06-19T09:33:57;99398.28;;;30.80;47.26
11343;BME280;5726;42.160;24.746;2023-06-19T09:36:22;99407.41;;;31.00;46.89
11343;BME280;5726;42.160;24.746;2023-06-19T09:38:50;99399.66;;;30.91;47.14
11343;BME280;5726;42.160;24.746;2023-06-19T09:41:17;99394.03;;;30.95;46.78
11343;BME280;5726;42.160;24.746;2023-06-19T09:43:43;99400.34;;;30.95;46.65
11343;BME280;5726;42.160;24.746;2023-06-19T09:46:10;99387.66;;;30.98;46.58
11343;BME280;5726;42.160;24.746;2023-06-19T09:48:41;99398.66;;;31.01;46.75
11343;BME280;5726;42.160;24.746;2023-06-19T09:53:44;99388.38;;;31.02;46.51
11343;BME280;5726;42.160;24.746;2023-06-19T09:56:09;99388.50;;;30.95;46.82
11343;BME280;5726;42.160;24.746;2023-06-19T09:58:36;99389.47;;;30.85;45.58
11343;BME280;5726;42.160;24.746;2023-06-19T10:01:04;99386.09;;;30.97;46.18
11343;BME280;5726;42.160;24.746;2023-06-19T10:03:31;99394.53;;;31.29;46.60
11343;BME280;5726;42.160;24.746;2023-06-19T10:05:58;99383.91;;;30.89;44.59
11343;BME280;5726;42.160;24.746;2023-06-19T10:08:38;99382.00;;;30.82;43.76
11343;BME280;5726;42.160;24.746;2023-06-19T10:11:03;99378.28;;;30.92;43.95
11343;BME280;5726;42.160;24.746;2023-06-19T10:13:37;99374.72;;;31.11;43.25
11343;BME280;5726;42.160;24.746;2023-06-19T10:16:05;99372.91;;;31.39;45.81
11343;BME280;5726;42.160;24.746;2023-06-19T10:18:32;99367.50;;;31.33;46.29
11343;BME280;5726;42.160;24.746;2023-06-19T10:20:57;99369.03;;;31.18;45.75
11343;BME280;5726;42.160;24.746;2023-06-19T10:23:25;99377.97;;;31.06;45.10
11343;BME280;5726;42.160;24.746;2023-06-19T10:25:59;99374.88;;;31.04;44.93
11343;BME280;5726;42.160;24.746;2023-06-19T10:28:29;99381.16;;;31.24;44.43
11343;BME280;5726;42.160;24.746;2023-06-19T10:30:58;99368.72;;;31.32;43.30
11343;BME280;5726;42.160;24.746;2023-06-19T10:33:26;99371.44;;;31.16;42.92
11343;BME280;5726;42.160;24.746;2023-06-19T10:35:52;99366.09;;;31.25;44.22
11343;BME280;5726;42.160;24.746;2023-06-19T10:38:18;99354.50;;;31.49;43.42
11343;BME280;5726;42.160;24.746;2023-06-19T10:40:44;99354.25;;;31.59;43.91
11343;BME280;5726;42.160;24.746;2023-06-19T10:43:11;99350.63;;;31.62;43.69
11343;BME280;5726;42.160;24.746;2023-06-19T10:45:36;99352.84;;;31.51;44.12
11343;BME280;5726;42.160;24.746;2023-06-19T10:48:03;99345.50;;;31.45;43.96
11343;BME280;5726;42.160;24.746;2023-06-19T10:50:29;99352.59;;;31.27;44.44
11343;BME280;5726;42.160;24.746;2023-06-19T10:52:55;99352.72;;;31.04;44.86
11343;BME280;5726;42.160;24.746;2023-06-19T10:55:21;99344.44;;;31.20;43.78
11343;BME280;5726;42.160;24.746;2023-06-19T10:57:47;99330.16;;;31.56;43.64
11343;BME280;5726;42.160;24.746;2023-06-19T11:00:30;99335.34;;;31.19;44.04
11343;BME280;5726;42.160;24.746;2023-06-19T11:02:57;99331.81;;;30.99;44.14
11343;BME280;5726;42.160;24.746;2023-06-19T11:05:24;99328.69;;;31.33;44.95
11343;BME280;5726;42.160;24.746;2023-06-19T11:07:58;99325.94;;;31.33;45.68
11343;BME280;5726;42.160;24.746;2023-06-19T11:10:28;99332.31;;;31.14;44.81
11343;BME280;5726;42.160;24.746;2023-06-19T11:12:58;99337.59;;;31.43;45.02
11343;BME280;5726;42.160;24.746;2023-06-19T11:15:33;99324.38;;;31.32;43.63
11343;BME280;5726;42.160;24.746;2023-06-19T11:18:00;99329.53;;;31.14;43.91
11343;BME280;5726;42.160;24.746;2023-06-19T11:20:26;99324.69;;;31.18;42.83
11343;BME280;5726;42.160;24.746;2023-06-19T11:22:59;99324.69;;;31.18;43.65
11343;BME280;5726;42.160;24.746;2023-06-19T11:25:38;99321.09;;;31.37;42.94
11343;BME280;5726;42.160;24.746;2023-06-19T11:28:14;99312.66;;;31.59;42.92
11343;BME280;5726;42.160;24.746;2023-06-19T11:30:41;99317.69;;;31.80;42.17
11343;BME280;5726;42.160;24.746;2023-06-19T11:33:19;99325.31;;;31.60;42.80
11343;BME280;5726;42.160;24.746;2023-06-19T11:35:52;99316.47;;;31.65;40.97
11343;BME280;5726;42.160;24.746;2023-06-19T11:38:23;99316.66;;;31.90;40.89
11343;BME280;5726;42.160;24.746;2023-06-19T11:40:50;99312.31;;;31.89;40.99
11343;BME280;5726;42.160;24.746;2023-06-19T11:43:31;99308.59;;;31.64;42.55
11343;BME280;5726;42.160;24.746;2023-06-19T11:46:05;99305.41;;;31.97;42.49
11343;BME280;5726;42.160;24.746;2023-06-19T11:48:31;99304.97;;;31.83;43.79
11343;BME280;5726;42.160;24.746;2023-06-19T11:50:56;99303.53;;;31.94;43.75
11343;BME280;5726;42.160;24.746;2023-06-19T11:53:23;99296.53;;;31.54;44.78
11343;BME280;5726;42.160;24.746;2023-06-19T11:55:50;99292.56;;;31.71;44.79
11343;BME280;5726;42.160;24.746;2023-06-19T11:58:15;99303.66;;;31.87;43.17
11343;BME280;5726;42.160;24.746;2023-06-19T12:00:42;99289.88;;;31.84;42.19
11343;BME280;5726;42.160;24.746;2023-06-19T12:03:08;99297.53;;;31.95;43.41
11343;BME280;5726;42.160;24.746;2023-06-19T12:05:34;99291.13;;;31.98;42.66
11343;BME280;5726;42.160;24.746;2023-06-19T12:08:00;99286.41;;;31.80;42.83
11343;BME280;5726;42.160;24.746;2023-06-19T12:10:28;99290.31;;;31.82;42.36
11343;BME280;5726;42.160;24.746;2023-06-19T12:12:53;99280.94;;;32.08;42.17
11343;BME280;5726;42.160;24.746;2023-06-19T12:15:19;99279.22;;;31.98;42.18
11343;BME280;5726;42.160;24.746;2023-06-19T12:17:45;99283.44;;;32.18;43.05
11343;BME280;5726;42.160;24.746;2023-06-19T12:20:11;99272.13;;;31.97;41.81
11343;BME280;5726;42.160;24.746;2023-06-19T12:22:39;99273.91;;;31.87;42.51
11343;BME280;5726;42.160;24.746;2023-06-19T12:25:04;99282.16;;;32.07;42.33
11343;BME280;5726;42.160;24.746;2023-06-19T12:27:30;99263.88;;;31.93;40.98
11343;BME280;5726;42.160;24.746;2023-06-19T12:29:55;99261.91;;;31.94;41.09
11343;BME280;5726;42.160;24.746;2023-06-19T12:32:21;99258.19;;;32.13;40.19
11343;BME280;5726;42.160;24.746;2023-06-19T12:34:46;99259.50;;;32.08;39.64
11343;BME280;5726;42.160;24.746;2023-06-19T12:37:16;99267.56;;;32.19;39.70
11343;BME280;5726;42.160;24.746;2023-06-19T12:39:44;99258.41;;;32.06;39.57
11343;BME280;5726;42.160;24.746;2023-06-19T12:42:10;99262.94;;;32.00;40.18
11343;BME280;5726;42.160;24.746;2023-06-19T12:44:39;99258.84;;;32.04;39.96
11343;BME280;5726;42.160;24.746;2023-06-19T12:47:05;99258.50;;;31.71;40.10
11343;BME280;5726;42.160;24.746;2023-06-19T12:49:31;99240.16;;;31.45;42.41
11343;BME280;5726;42.160;24.746;2023-06-19T12:51:56;99247.69;;;31.76;41.87
11343;BME280;5726;42.160;24.746;2023-06-19T12:54:22;99253.75;;;32.31;40.96
11343;BME280;5726;42.160;24.746;2023-06-19T12:56:48;99251.31;;;32.33;39.72
11343;BME280;5726;42.160;24.746;2023-06-19T12:59:14;99242.28;;;32.29;40.05
11343;BME280;5726;42.160;24.746;2023-06-19T13:01:40;99246.53;;;32.34;39.69
11343;BME280;5726;42.160;24.746;2023-06-19T13:04:06;99244.53;;;32.34;38.65
11343;BME280;5726;42.160;24.746;2023-06-19T13:06:31;99248.19;;;32.03;40.13